createdAt,value
2018-10-07T00:01:00.916Z,14.86
2018-10-07T00:03:28.084Z,14.88
2018-10-07T00:05:55.261Z,14.84
2018-10-07T00:08:22.470Z,14.87
2018-10-07T00:10:49.653Z,14.78
2018-10-07T00:13:16.792Z,14.73
2018-10-07T00:15:43.983Z,14.64
2018-10-07T00:18:11.119Z,14.62
2018-10-07T00:20:38.335Z,14.60
2018-10-07T00:23:05.617Z,14.66
2018-10-07T00:25:32.769Z,14.54
2018-10-07T00:27:59.929Z,14.47
2018-10-07T00:30:27.121Z,14.43
2018-10-07T00:32:54.301Z,14.39
2018-10-07T00:35:21.456Z,14.31
2018-10-07T00:37:48.729Z,14.32
2018-10-07T00:40:15.915Z,14.25
2018-10-07T00:42:43.071Z,14.24
2018-10-07T00:45:10.276Z,14.17
2018-10-07T00:47:37.468Z,14.10
2018-10-07T00:50:04.649Z,14.23
2018-10-07T00:52:31.875Z,14.08
2018-10-07T00:54:59.008Z,13.97
2018-10-07T00:57:26.260Z,13.90
2018-10-07T00:59:53.677Z,13.84
2018-10-07T01:02:20.830Z,13.80
2018-10-07T01:04:48.000Z,13.85
2018-10-07T01:07:15.187Z,13.89
2018-10-07T01:09:42.352Z,13.88
2018-10-07T01:12:09.520Z,13.82
2018-10-07T01:14:36.728Z,13.82
2018-10-07T01:17:03.889Z,13.76
2018-10-07T01:19:31.119Z,13.71
2018-10-07T01:21:58.318Z,13.71
2018-10-07T01:24:26.608Z,13.64
2018-10-07T01:26:54.467Z,13.59
2018-10-07T01:29:25.332Z,13.60
2018-10-07T01:31:52.763Z,13.59
2018-10-07T01:34:19.961Z,13.58
2018-10-07T01:36:47.185Z,13.64
2018-10-07T01:39:14.439Z,13.50
2018-10-07T01:41:41.600Z,13.42
2018-10-07T01:44:08.820Z,13.33
2018-10-07T01:46:36.183Z,13.27
2018-10-07T01:49:03.425Z,13.20
2018-10-07T01:51:30.819Z,13.14
2018-10-07T01:53:57.977Z,13.06
2018-10-07T01:56:25.264Z,13.00
2018-10-07T01:58:52.464Z,12.95
2018-10-07T02:01:19.640Z,12.89
2018-10-07T02:03:46.829Z,12.81
2018-10-07T02:06:18.082Z,12.79
2018-10-07T02:08:45.457Z,12.77
2018-10-07T02:11:12.726Z,12.78
2018-10-07T02:13:40.051Z,12.79
2018-10-07T02:16:09.526Z,12.87
2018-10-07T02:18:37.204Z,12.84
2018-10-07T02:21:04.710Z,12.85
2018-10-07T02:23:32.009Z,12.81
2018-10-07T02:25:59.221Z,12.81
2018-10-07T02:28:26.786Z,12.83
2018-10-07T02:30:58.244Z,12.85
2018-10-07T02:33:25.944Z,12.87
2018-10-07T02:35:53.638Z,12.83
2018-10-07T02:38:21.180Z,12.84
2018-10-07T02:40:49.734Z,12.78
2018-10-07T02:43:17.552Z,12.76
2018-10-07T02:45:45.329Z,12.80
2018-10-07T02:48:12.833Z,12.77
2018-10-07T02:50:40.886Z,12.77
2018-10-07T02:53:08.591Z,12.73
2018-10-07T02:55:36.215Z,12.70
2018-10-07T02:58:04.836Z,12.81
2018-10-07T03:00:32.500Z,12.75
2018-10-07T03:03:00.094Z,12.69
2018-10-07T03:05:28.300Z,12.70
2018-10-07T03:07:56.014Z,12.76
2018-10-07T03:10:23.853Z,12.67
2018-10-07T03:12:51.665Z,12.63
2018-10-07T03:15:19.709Z,12.63
2018-10-07T03:17:47.614Z,12.56
2018-10-07T03:20:18.088Z,12.53
2018-10-07T03:22:45.834Z,12.45
2018-10-07T03:25:13.388Z,12.36
2018-10-07T03:27:41.327Z,12.35
2018-10-07T03:30:08.912Z,12.31
2018-10-07T03:32:36.468Z,12.30
2018-10-07T03:35:04.214Z,12.24
2018-10-07T03:37:32.895Z,12.14
2018-10-07T03:40:00.679Z,12.08
2018-10-07T03:42:28.783Z,12.08
2018-10-07T03:44:56.340Z,11.99
2018-10-07T03:47:24.352Z,11.89
2018-10-07T03:49:52.098Z,11.91
2018-10-07T03:52:21.135Z,11.85
2018-10-07T03:54:48.783Z,11.82
2018-10-07T03:57:16.548Z,11.80
2018-10-07T03:59:43.892Z,11.77
2018-10-07T04:02:11.205Z,11.82
2018-10-07T04:04:40.415Z,11.77
2018-10-07T04:07:07.673Z,11.91
2018-10-07T04:09:35.202Z,11.77
2018-10-07T04:12:02.535Z,11.74
2018-10-07T04:14:29.761Z,11.64
2018-10-07T04:16:57.002Z,11.60
2018-10-07T04:19:24.223Z,11.54
2018-10-07T04:21:55.430Z,11.48
2018-10-07T04:24:23.704Z,11.42
2018-10-07T04:26:51.065Z,11.35
2018-10-07T04:29:18.520Z,11.33
2018-10-07T04:31:45.920Z,11.38
2018-10-07T04:34:13.134Z,11.35
2018-10-07T04:36:40.559Z,11.32
2018-10-07T04:39:08.758Z,11.26
2018-10-07T04:41:36.980Z,11.22
2018-10-07T04:44:04.262Z,11.21
2018-10-07T04:46:31.621Z,11.17
2018-10-07T04:48:59.212Z,11.15
2018-10-07T04:51:26.381Z,11.05
2018-10-07T04:53:53.786Z,11.04
2018-10-07T04:56:21.013Z,11.03
2018-10-07T04:58:48.312Z,11.06
2018-10-07T05:01:15.630Z,11.00
2018-10-07T05:03:44.909Z,11.09
2018-10-07T05:06:12.266Z,11.13
2018-10-07T05:08:39.563Z,11.17
2018-10-07T05:11:06.929Z,11.12
2018-10-07T05:13:41.681Z,11.16
2018-10-07T05:16:09.372Z,11.18
2018-10-07T05:18:37.796Z,11.18
2018-10-07T05:21:05.181Z,11.28
2018-10-07T05:23:32.477Z,11.32
2018-10-07T05:25:59.810Z,11.36
2018-10-07T05:28:31.889Z,11.37
2018-10-07T05:30:59.442Z,11.46
2018-10-07T05:33:27.192Z,11.57
2018-10-07T05:35:54.673Z,11.58
2018-10-07T05:38:22.261Z,11.58
2018-10-07T05:40:49.792Z,11.61
2018-10-07T05:43:17.307Z,11.65
2018-10-07T05:45:44.805Z,11.62
2018-10-07T05:48:12.358Z,11.61
2018-10-07T05:50:40.162Z,11.61
2018-10-07T05:53:07.885Z,11.62
2018-10-07T05:58:21.299Z,11.69
2018-10-07T06:00:50.251Z,11.74
2018-10-07T06:06:16.337Z,11.98
2018-10-07T06:08:48.481Z,12.11
2018-10-07T06:11:21.311Z,12.20
2018-10-07T06:13:51.616Z,12.39
2018-10-07T06:16:20.354Z,12.52
2018-10-07T06:18:50.820Z,12.61
2018-10-07T06:21:19.807Z,12.85
2018-10-07T06:23:47.382Z,13.00
2018-10-07T06:26:14.830Z,13.19
2018-10-07T06:28:43.210Z,13.43
2018-10-07T06:31:10.477Z,13.52
2018-10-07T06:33:38.785Z,13.77
2018-10-07T06:36:06.299Z,13.96
2018-10-07T06:38:46.017Z,14.09
2018-10-07T06:41:18.337Z,14.25
2018-10-07T06:43:48.308Z,14.29
2018-10-07T06:46:21.768Z,14.34
2018-10-07T06:48:49.836Z,14.45
2018-10-07T06:51:20.574Z,14.38
2018-10-07T06:53:48.321Z,14.34
2018-10-07T06:56:15.542Z,14.34
2018-10-07T06:58:43.570Z,14.27
2018-10-07T07:01:11.019Z,14.30
2018-10-07T07:03:38.256Z,14.29
2018-10-07T07:06:05.525Z,14.23
2018-10-07T07:08:32.863Z,14.26
2018-10-07T07:11:00.104Z,14.32
2018-10-07T07:13:28.603Z,14.28
2018-10-07T07:15:56.029Z,14.28
2018-10-07T07:18:23.362Z,14.32
2018-10-07T07:20:51.120Z,14.36
2018-10-07T07:23:18.532Z,14.41
2018-10-07T07:25:46.110Z,14.57
2018-10-07T07:28:13.597Z,14.64
2018-10-07T07:30:41.026Z,14.73
2018-10-07T07:33:08.230Z,14.69
2018-10-07T07:38:00.064Z,14.66
2018-10-07T07:40:27.543Z,14.71
2018-10-07T07:42:54.972Z,14.71
2018-10-07T07:45:22.525Z,14.71
2018-10-07T07:47:49.836Z,14.72
2018-10-07T07:50:17.009Z,14.80
2018-10-07T07:52:45.206Z,14.84
2018-10-07T07:55:12.386Z,14.74
2018-10-07T07:57:40.676Z,14.55
2018-10-07T08:00:07.897Z,14.46
2018-10-07T08:02:35.094Z,14.52
2018-10-07T08:05:02.377Z,14.36
2018-10-07T08:07:29.715Z,14.09
2018-10-07T08:09:57.603Z,13.88
2018-10-07T08:12:24.778Z,13.80
2018-10-07T08:14:52.377Z,13.62
2018-10-07T08:17:19.628Z,13.48
2018-10-07T08:19:48.891Z,13.49
2018-10-07T08:22:16.116Z,13.29
2018-10-07T08:24:43.300Z,13.23
2018-10-07T08:27:10.498Z,13.26
2018-10-07T08:29:37.858Z,13.19
2018-10-07T08:32:04.995Z,13.20
2018-10-07T08:34:32.153Z,13.02
2018-10-07T08:36:59.392Z,13.06
2018-10-07T08:39:26.557Z,13.22
2018-10-07T08:41:53.715Z,13.07
2018-10-07T08:44:20.947Z,13.06
2018-10-07T08:46:49.182Z,13.09
2018-10-07T08:49:16.412Z,13.23
2018-10-07T08:51:43.593Z,13.21
2018-10-07T08:54:10.761Z,13.20
2018-10-07T08:56:37.914Z,13.22
2018-10-07T08:59:05.118Z,13.23
2018-10-07T09:01:32.274Z,13.26
2018-10-07T09:03:59.447Z,13.42
2018-10-07T09:06:26.671Z,13.51
2018-10-07T09:08:53.918Z,13.82
2018-10-07T09:11:21.005Z,13.90
2018-10-07T09:13:48.207Z,14.00
2018-10-07T09:16:15.473Z,13.93
2018-10-07T09:18:42.640Z,13.97
2018-10-07T09:21:09.905Z,14.05
2018-10-07T09:23:37.019Z,14.20
2018-10-07T09:26:04.200Z,14.30
2018-10-07T09:28:31.421Z,14.32
2018-10-07T09:30:58.581Z,14.21
2018-10-07T09:33:25.837Z,14.15
2018-10-07T09:35:53.031Z,14.22
2018-10-07T09:38:20.206Z,14.16
2018-10-07T09:40:47.348Z,14.34
2018-10-07T09:43:14.597Z,14.47
2018-10-07T09:45:41.796Z,14.61
2018-10-07T09:48:09.051Z,14.63
2018-10-07T09:50:36.327Z,14.52
2018-10-07T09:53:03.477Z,14.49
2018-10-07T09:55:30.612Z,14.36
2018-10-07T09:57:57.844Z,14.24
2018-10-07T10:00:30.818Z,14.12
2018-10-07T10:02:58.208Z,13.99
2018-10-07T10:05:25.408Z,13.89
2018-10-07T10:07:52.742Z,14.02
2018-10-07T10:10:19.951Z,14.27
2018-10-07T10:12:47.114Z,14.24
2018-10-07T10:15:14.285Z,14.21
2018-10-07T10:17:45.534Z,14.10
2018-10-07T10:20:12.716Z,13.83
2018-10-07T10:25:19.488Z,13.56
2018-10-07T10:28:36.206Z,13.37
2018-10-07T10:31:09.714Z,13.45
2018-10-07T10:33:48.507Z,13.56
2018-10-07T10:36:27.172Z,13.67
2018-10-07T10:39:09.678Z,13.76
2018-10-07T10:41:45.854Z,13.75
2018-10-07T10:44:29.415Z,13.61
2018-10-07T10:47:06.075Z,13.43
2018-10-07T10:49:38.244Z,13.20
2018-10-07T10:52:15.173Z,13.17
2018-10-07T10:54:56.534Z,13.03
2018-10-07T10:57:45.944Z,13.02
2018-10-07T11:00:17.486Z,12.98
2018-10-07T11:05:02.290Z,13.02
2018-10-07T11:08:34.661Z,12.86
2018-10-07T11:11:16.854Z,12.67
2018-10-07T11:13:54.771Z,12.81
2018-10-07T11:18:42.227Z,12.73
2018-10-07T11:23:55.970Z,12.74
2018-10-07T11:27:05.257Z,12.74
2018-10-07T11:29:46.642Z,12.59
2018-10-07T11:33:20.097Z,12.60
2018-10-07T11:37:05.641Z,12.74
2018-10-07T11:39:45.183Z,12.74
2018-10-07T11:42:21.991Z,12.86
2018-10-07T11:45:02.887Z,13.02
2018-10-07T11:48:47.645Z,13.36
2018-10-07T11:51:23.099Z,13.59
2018-10-07T11:53:55.343Z,13.66
2018-10-07T11:56:23.174Z,13.62
2018-10-07T11:58:51.222Z,13.62
2018-10-07T12:01:19.175Z,13.73
2018-10-07T12:03:46.957Z,13.63
2018-10-07T12:06:15.039Z,13.72
2018-10-07T12:08:42.681Z,13.64
2018-10-07T12:11:10.653Z,13.67
2018-10-07T12:13:38.660Z,13.66
2018-10-07T12:16:06.612Z,13.61
2018-10-07T12:18:34.517Z,13.55
2018-10-07T12:21:02.510Z,13.50
2018-10-07T12:23:31.598Z,13.37
2018-10-07T12:26:01.605Z,13.44
2018-10-07T12:28:29.517Z,13.39
2018-10-07T12:30:57.587Z,13.52
2018-10-07T12:33:25.516Z,13.59
2018-10-07T12:35:53.323Z,13.65
2018-10-07T12:38:21.361Z,13.57
2018-10-07T12:40:49.380Z,13.55
2018-10-07T12:43:17.245Z,13.56
2018-10-07T12:45:45.080Z,13.51
2018-10-07T12:48:12.889Z,13.33
2018-10-07T12:50:40.159Z,13.34
2018-10-07T12:53:07.515Z,13.23
2018-10-07T12:55:34.707Z,13.11
2018-10-07T12:58:01.846Z,13.10
2018-10-07T13:00:29.162Z,13.11
2018-10-07T13:02:59.865Z,13.13
2018-10-07T13:05:27.040Z,13.15
2018-10-07T13:07:54.253Z,13.30
2018-10-07T13:10:21.429Z,13.45
2018-10-07T13:12:53.059Z,13.34
2018-10-07T13:15:20.255Z,13.49
2018-10-07T13:17:47.525Z,13.55
2018-10-07T13:20:14.748Z,13.57
2018-10-07T13:22:43.034Z,13.68
2018-10-07T13:25:10.217Z,13.61
2018-10-07T13:27:37.412Z,13.61
2018-10-07T13:30:05.289Z,13.52
2018-10-07T13:32:32.469Z,13.40
2018-10-07T13:34:59.612Z,13.49
2018-10-07T13:37:26.823Z,13.49
2018-10-07T13:39:55.061Z,13.36
2018-10-07T13:42:22.188Z,13.40
2018-10-07T13:44:49.386Z,13.55
2018-10-07T13:47:16.524Z,13.78
2018-10-07T13:49:43.685Z,13.82
2018-10-07T13:52:11.018Z,13.81
2018-10-07T13:54:38.259Z,13.90
2018-10-07T13:57:05.584Z,14.06
2018-10-07T13:59:32.781Z,14.03
2018-10-07T14:01:59.900Z,14.04
2018-10-07T14:04:30.267Z,14.00
2018-10-07T14:06:57.439Z,13.95
2018-10-07T14:09:27.846Z,13.91
2018-10-07T14:11:54.968Z,13.96
2018-10-07T14:14:22.156Z,13.86
2018-10-07T14:16:49.311Z,13.90
2018-10-07T14:19:16.566Z,13.82
2018-10-07T14:21:43.827Z,13.83
2018-10-07T14:24:10.972Z,13.88
2018-10-07T14:26:38.141Z,13.75
2018-10-07T14:29:05.321Z,13.57
2018-10-07T14:31:32.464Z,13.51
2018-10-07T14:33:59.728Z,13.55
2018-10-07T14:36:26.893Z,13.62
2018-10-07T14:38:54.056Z,13.61
2018-10-07T14:41:23.265Z,13.51
2018-10-07T14:43:50.454Z,13.37
2018-10-07T14:46:17.627Z,13.45
2018-10-07T14:48:44.779Z,13.45
2018-10-07T14:51:12.185Z,13.46
2018-10-07T14:53:39.477Z,13.47
2018-10-07T14:56:06.616Z,13.45
2018-10-07T14:58:33.932Z,13.51
2018-10-07T15:01:01.097Z,13.49
2018-10-07T15:03:29.417Z,13.43
2018-10-07T15:05:56.624Z,13.30
2018-10-07T15:08:23.830Z,13.47
2018-10-07T15:10:56.114Z,13.44
2018-10-07T15:13:23.288Z,13.51
2018-10-07T15:15:50.424Z,13.46
2018-10-07T15:18:17.763Z,13.55
2018-10-07T15:20:45.065Z,13.60
2018-10-07T15:23:12.226Z,13.48
2018-10-07T15:25:40.564Z,13.39
2018-10-07T15:28:07.744Z,13.37
2018-10-07T15:30:35.113Z,13.31
2018-10-07T15:33:02.372Z,13.47
2018-10-07T15:35:29.669Z,13.33
2018-10-07T15:37:56.952Z,13.30
2018-10-07T15:40:24.235Z,13.39
2018-10-07T15:42:51.373Z,13.30
2018-10-07T15:45:18.584Z,13.32
2018-10-07T15:47:46.139Z,13.33
2018-10-07T15:50:13.334Z,13.41
2018-10-07T15:52:40.596Z,13.22
2018-10-07T15:55:11.700Z,13.15
2018-10-07T15:57:38.970Z,13.17
2018-10-07T16:00:06.219Z,13.15
2018-10-07T16:02:33.616Z,13.16
2018-10-07T16:05:00.829Z,12.88
2018-10-07T16:07:29.064Z,12.98
2018-10-07T16:09:56.713Z,12.92
2018-10-07T16:12:23.940Z,12.79
2018-10-07T16:14:51.207Z,12.67
2018-10-07T16:17:18.810Z,12.47
2018-10-07T16:19:46.040Z,12.28
2018-10-07T16:22:13.362Z,12.07
2018-10-07T16:24:40.713Z,11.86
2018-10-07T16:27:08.613Z,11.63
2018-10-07T16:29:35.860Z,11.46
2018-10-07T16:32:03.224Z,11.29
2018-10-07T16:34:30.705Z,11.08
2018-10-07T16:36:57.941Z,10.91
2018-10-07T16:39:25.221Z,10.72
2018-10-07T16:41:52.464Z,10.56
2018-10-07T16:44:19.650Z,10.41
2018-10-07T16:46:46.917Z,10.25
2018-10-07T16:49:16.190Z,10.11
2018-10-07T16:51:43.397Z,9.95
2018-10-07T16:54:10.770Z,9.84
2018-10-07T16:56:38.355Z,9.74
2018-10-07T16:59:05.984Z,9.63
2018-10-07T17:01:33.438Z,9.51
2018-10-07T17:04:03.524Z,9.39
2018-10-07T17:06:32.275Z,9.27
2018-10-07T17:09:14.589Z,9.19
2018-10-07T17:11:46.728Z,9.09
2018-10-07T17:14:17.581Z,8.96
2018-10-07T17:16:44.780Z,8.92
2018-10-07T17:19:13.027Z,8.83
2018-10-07T17:21:40.415Z,8.77
2018-10-07T17:24:07.608Z,8.74
2018-10-07T17:26:35.304Z,8.74
2018-10-07T17:29:02.508Z,8.71
2018-10-07T17:31:29.629Z,8.61
2018-10-07T17:33:56.765Z,8.53
2018-10-07T17:36:23.936Z,8.46
2018-10-07T17:38:51.103Z,8.42
2018-10-07T17:41:18.331Z,8.32
2018-10-07T17:43:45.490Z,8.27
2018-10-07T17:46:12.640Z,8.17
2018-10-07T17:48:40.201Z,8.05
2018-10-07T17:51:07.359Z,7.98
2018-10-07T17:53:34.604Z,7.88
2018-10-07T17:56:01.741Z,7.80
2018-10-07T17:58:29.051Z,7.83
2018-10-07T18:00:56.176Z,7.74
2018-10-07T18:03:23.539Z,7.72
2018-10-07T18:05:50.716Z,7.64
2018-10-07T18:08:17.868Z,7.50
2018-10-07T18:10:45.032Z,7.48
2018-10-07T18:13:12.217Z,7.44
2018-10-07T18:15:39.356Z,7.38
2018-10-07T18:18:06.473Z,7.27
2018-10-07T18:20:33.673Z,7.25
2018-10-07T18:23:00.791Z,7.17
2018-10-07T18:25:27.974Z,7.12
2018-10-07T18:27:55.358Z,7.05
2018-10-07T18:30:22.508Z,7.01
2018-10-07T18:32:49.648Z,6.99
2018-10-07T18:35:16.849Z,6.93
2018-10-07T18:37:44.045Z,6.91
2018-10-07T18:40:11.315Z,6.89
2018-10-07T18:42:38.476Z,6.78
2018-10-07T18:45:05.620Z,6.74
2018-10-07T18:47:32.919Z,6.73
2018-10-07T18:50:00.116Z,6.75
2018-10-07T18:52:27.336Z,6.68
2018-10-07T18:54:54.477Z,6.65
2018-10-07T18:57:21.737Z,6.60
2018-10-07T18:59:49.153Z,6.58
2018-10-07T19:02:16.294Z,6.56
2018-10-07T19:04:43.536Z,6.51
2018-10-07T19:07:10.692Z,6.49
2018-10-07T19:09:37.896Z,6.46
2018-10-07T19:12:05.305Z,6.45
2018-10-07T19:14:32.519Z,6.42
2018-10-07T19:16:59.633Z,6.36
2018-10-07T19:19:27.048Z,6.28
2018-10-07T19:21:54.340Z,6.24
2018-10-07T19:24:21.513Z,6.22
2018-10-07T19:26:48.931Z,6.18
2018-10-07T19:29:16.956Z,6.15
2018-10-07T19:31:44.135Z,6.08
2018-10-07T19:34:11.561Z,6.03
2018-10-07T19:36:39.027Z,6.02
2018-10-07T19:39:08.569Z,5.93
2018-10-07T19:41:35.889Z,5.94
2018-10-07T19:44:03.087Z,5.86
2018-10-07T19:46:30.257Z,5.78
2018-10-07T19:48:57.432Z,5.80
2018-10-07T19:51:25.093Z,5.82
2018-10-07T19:53:52.244Z,5.74
2018-10-07T19:56:19.449Z,5.72
2018-10-07T19:58:46.621Z,5.68
2018-10-07T20:01:13.769Z,5.62
2018-10-07T20:03:41.592Z,5.57
2018-10-07T20:06:09.939Z,5.53
2018-10-07T20:08:37.194Z,5.54
2018-10-07T20:11:04.400Z,5.51
2018-10-07T20:13:31.728Z,5.47
2018-10-07T20:15:58.909Z,5.45
2018-10-07T20:18:26.112Z,5.47
2018-10-07T20:20:53.273Z,5.44
2018-10-07T20:23:20.503Z,5.40
2018-10-07T20:25:47.787Z,5.35
2018-10-07T20:28:14.926Z,5.28
2018-10-07T20:30:42.080Z,5.21
2018-10-07T20:33:09.375Z,5.17
2018-10-07T20:35:36.526Z,5.14
2018-10-07T20:38:03.796Z,5.15
2018-10-07T20:40:31.050Z,5.14
2018-10-07T20:42:58.189Z,5.08
2018-10-07T20:45:25.388Z,5.00
2018-10-07T20:47:52.589Z,4.97
2018-10-07T20:50:20.137Z,4.97
2018-10-07T20:52:47.474Z,4.90
2018-10-07T20:55:14.707Z,4.89
2018-10-07T20:57:41.912Z,4.83
2018-10-07T21:00:09.044Z,4.83
2018-10-07T21:02:36.254Z,4.75
2018-10-07T21:05:03.877Z,4.81
2018-10-07T21:07:31.144Z,4.72
2018-10-07T21:09:58.345Z,4.69
2018-10-07T21:12:25.504Z,4.62
2018-10-07T21:14:52.673Z,4.61
2018-10-07T21:17:19.868Z,4.60
2018-10-07T21:19:47.032Z,4.58
2018-10-07T21:22:14.207Z,4.59
2018-10-07T21:24:41.385Z,4.54
2018-10-07T21:27:08.517Z,4.53
2018-10-07T21:29:35.776Z,4.59
2018-10-07T21:32:03.066Z,4.57
2018-10-07T21:34:30.204Z,4.49
2018-10-07T21:36:57.339Z,4.53
2018-10-07T21:39:24.505Z,4.52
2018-10-07T21:41:51.689Z,4.44
2018-10-07T21:44:19.221Z,4.40
2018-10-07T21:46:46.432Z,4.38
2018-10-07T21:49:13.638Z,4.35
2018-10-07T21:52:00.947Z,4.32
2018-10-07T21:54:28.103Z,4.34
2018-10-07T21:56:55.261Z,4.32
2018-10-07T21:59:22.447Z,4.39
2018-10-07T22:01:49.580Z,4.37
2018-10-07T22:04:16.741Z,4.31
2018-10-07T22:06:43.995Z,4.32
2018-10-07T22:09:11.183Z,4.31
2018-10-07T22:11:38.326Z,4.23
2018-10-07T22:14:05.503Z,4.18
2018-10-07T22:16:32.661Z,4.15
2018-10-07T22:18:59.815Z,4.10
2018-10-07T22:21:26.969Z,4.06
2018-10-07T22:23:54.112Z,4.01
2018-10-07T22:26:21.248Z,4.03
2018-10-07T22:28:48.431Z,4.02
2018-10-07T22:31:15.573Z,4.00
2018-10-07T22:33:42.708Z,3.99
2018-10-07T22:36:09.903Z,4.03
2018-10-07T22:38:37.041Z,3.87
2018-10-07T22:41:04.232Z,3.86
2018-10-07T22:43:31.400Z,3.81
2018-10-07T22:45:58.552Z,3.91
2018-10-07T22:48:25.676Z,3.81
2018-10-07T22:50:52.848Z,3.76
2018-10-07T22:53:20.068Z,3.71
2018-10-07T22:55:47.257Z,3.65
2018-10-07T22:58:14.434Z,3.59
2018-10-07T23:00:41.593Z,3.45
2018-10-07T23:03:08.726Z,3.44
2018-10-07T23:05:35.893Z,3.63
2018-10-07T23:08:03.104Z,3.57
2018-10-07T23:10:30.500Z,3.60
2018-10-07T23:12:57.711Z,3.57
2018-10-07T23:15:24.847Z,3.46
2018-10-07T23:17:51.991Z,3.35
2018-10-07T23:20:19.196Z,3.31
2018-10-07T23:22:47.424Z,3.28
2018-10-07T23:25:14.572Z,3.29
2018-10-07T23:27:41.790Z,3.28
2018-10-07T23:30:08.938Z,3.27
2018-10-07T23:32:36.210Z,3.27
2018-10-07T23:35:04.772Z,3.34
2018-10-07T23:37:32.142Z,3.20
2018-10-07T23:39:59.357Z,3.30
2018-10-07T23:42:26.625Z,3.26
2018-10-07T23:44:53.904Z,3.16
2018-10-07T23:47:21.231Z,3.11
2018-10-07T23:49:48.532Z,3.31
2018-10-07T23:52:16.833Z,3.12
2018-10-07T23:54:44.147Z,3.07
2018-10-07T23:57:11.442Z,3.04
2018-10-07T23:59:38.693Z,3.04
